Terminal Aerodrome Forecast
Issued by NWS

Home | Current Version | Previous Version | Text Only | Print | Product List | Glossary On
Versions: 1 2 3 4 5 6 7 8 9 10 11 12 13 14 15 16 17
000
FTUS43 KFGF 022331
TAFDVL
TAF
KDVL 022331Z 0300/0324 06013KT P6SM OVC010
      TEMPO 0301/0304 -SHRA BKN010
     FM030500 05010KT P6SM OVC012
     FM031500 02014KT P6SM OVC025
     FM031900 01013G20KT P6SM BKN050
      AMD LTD TO CLD VIS AND WIND=

USA.gov is the U.S. government's official web portal to all federal, state and local government web resources and services.